sensor_id;sensor_type;location;lat;lon;timestamp;P1;durP1;ratioP1;P2;durP2;ratioP2
38865;SDS011;62686;48.984;8.394;2023-05-13T00:01:01;7.43;;;3.83;;
38865;SDS011;62686;48.984;8.394;2023-05-13T00:03:30;3.97;;;3.50;;
38865;SDS011;62686;48.984;8.394;2023-05-13T00:05:58;4.40;;;3.63;;
38865;SDS011;62686;48.984;8.394;2023-05-13T00:08:26;3.73;;;3.43;;
38865;SDS011;62686;48.984;8.394;2023-05-13T00:10:55;4.67;;;3.20;;
38865;SDS011;62686;48.984;8.394;2023-05-13T00:13:23;3.70;;;3.33;;
38865;SDS011;62686;48.984;8.394;2023-05-13T00:15:52;4.37;;;3.40;;
38865;SDS011;62686;48.984;8.394;2023-05-13T00:18:20;5.10;;;3.10;;
38865;SDS011;62686;48.984;8.394;2023-05-13T00:20:49;3.40;;;3.10;;
38865;SDS011;62686;48.984;8.394;2023-05-13T00:23:18;4.03;;;3.00;;
38865;SDS011;62686;48.984;8.394;2023-05-13T00:25:46;4.30;;;3.57;;
38865;SDS011;62686;48.984;8.394;2023-05-13T00:28:14;4.03;;;3.40;;
38865;SDS011;62686;48.984;8.394;2023-05-13T00:30:42;4.37;;;3.70;;
38865;SDS011;62686;48.984;8.394;2023-05-13T00:33:11;4.10;;;3.63;;
38865;SDS011;62686;48.984;8.394;2023-05-13T00:35:39;3.67;;;3.20;;
38865;SDS011;62686;48.984;8.394;2023-05-13T00:38:09;4.80;;;3.50;;
38865;SDS011;62686;48.984;8.394;2023-05-13T00:40:37;4.03;;;3.63;;
38865;SDS011;62686;48.984;8.394;2023-05-13T00:43:06;6.60;;;3.87;;
38865;SDS011;62686;48.984;8.394;2023-05-13T00:45:35;3.73;;;3.20;;
38865;SDS011;62686;48.984;8.394;2023-05-13T00:48:04;4.73;;;3.43;;
38865;SDS011;62686;48.984;8.394;2023-05-13T00:50:33;6.20;;;3.87;;
38865;SDS011;62686;48.984;8.394;2023-05-13T00:53:02;7.30;;;3.60;;
38865;SDS011;62686;48.984;8.394;2023-05-13T00:55:31;4.17;;;3.43;;
38865;SDS011;62686;48.984;8.394;2023-05-13T00:58:00;4.10;;;3.70;;
38865;SDS011;62686;48.984;8.394;2023-05-13T01:00:28;3.77;;;3.27;;
38865;SDS011;62686;48.984;8.394;2023-05-13T01:02:59;3.90;;;3.60;;
38865;SDS011;62686;48.984;8.394;2023-05-13T01:05:37;4.73;;;3.70;;
38865;SDS011;62686;48.984;8.394;2023-05-13T01:08:16;4.80;;;4.40;;
38865;SDS011;62686;48.984;8.394;2023-05-13T01:10:56;3.87;;;3.57;;
38865;SDS011;62686;48.984;8.394;2023-05-13T01:13:29;9.13;;;4.07;;
38865;SDS011;62686;48.984;8.394;2023-05-13T01:16:02;4.50;;;3.97;;
38865;SDS011;62686;48.984;8.394;2023-05-13T01:18:39;5.70;;;4.10;;
38865;SDS011;62686;48.984;8.394;2023-05-13T01:21:11;4.57;;;3.70;;
38865;SDS011;62686;48.984;8.394;2023-05-13T01:23:40;4.17;;;3.77;;
38865;SDS011;62686;48.984;8.394;2023-05-13T01:26:08;5.50;;;4.33;;
38865;SDS011;62686;48.984;8.394;2023-05-13T01:28:36;5.70;;;4.20;;
38865;SDS011;62686;48.984;8.394;2023-05-13T01:31:05;5.37;;;4.60;;
38865;SDS011;62686;48.984;8.394;2023-05-13T01:33:36;4.80;;;4.33;;
38865;SDS011;62686;48.984;8.394;2023-05-13T01:36:05;4.60;;;4.00;;
38865;SDS011;62686;48.984;8.394;2023-05-13T01:38:34;6.20;;;4.57;;
38865;SDS011;62686;48.984;8.394;2023-05-13T01:41:05;4.20;;;3.80;;
38865;SDS011;62686;48.984;8.394;2023-05-13T01:43:33;6.80;;;4.30;;
38865;SDS011;62686;48.984;8.394;2023-05-13T01:46:01;5.10;;;4.10;;
38865;SDS011;62686;48.984;8.394;2023-05-13T01:48:29;7.40;;;4.70;;
38865;SDS011;62686;48.984;8.394;2023-05-13T01:50:57;6.67;;;4.67;;
38865;SDS011;62686;48.984;8.394;2023-05-13T01:53:26;5.57;;;4.53;;
38865;SDS011;62686;48.984;8.394;2023-05-13T01:55:54;7.83;;;5.00;;
38865;SDS011;62686;48.984;8.394;2023-05-13T01:58:24;5.43;;;4.67;;
38865;SDS011;62686;48.984;8.394;2023-05-13T02:00:52;5.97;;;5.40;;
38865;SDS011;62686;48.984;8.394;2023-05-13T02:03:20;5.83;;;5.23;;
38865;SDS011;62686;48.984;8.394;2023-05-13T02:05:49;6.00;;;5.40;;
38865;SDS011;62686;48.984;8.394;2023-05-13T02:08:17;6.13;;;5.37;;
38865;SDS011;62686;48.984;8.394;2023-05-13T02:10:53;6.57;;;5.40;;
38865;SDS011;62686;48.984;8.394;2023-05-13T02:13:21;5.93;;;5.33;;
38865;SDS011;62686;48.984;8.394;2023-05-13T02:15:51;6.90;;;5.30;;
38865;SDS011;62686;48.984;8.394;2023-05-13T02:18:20;6.67;;;5.43;;
38865;SDS011;62686;48.984;8.394;2023-05-13T02:20:48;10.33;;;5.70;;
38865;SDS011;62686;48.984;8.394;2023-05-13T02:23:17;7.43;;;6.00;;
38865;SDS011;62686;48.984;8.394;2023-05-13T02:25:45;6.27;;;5.50;;
38865;SDS011;62686;48.984;8.394;2023-05-13T02:28:13;6.17;;;5.57;;
38865;SDS011;62686;48.984;8.394;2023-05-13T02:30:43;6.60;;;5.10;;
38865;SDS011;62686;48.984;8.394;2023-05-13T02:33:11;5.53;;;5.03;;
38865;SDS011;62686;48.984;8.394;2023-05-13T02:35:39;5.60;;;5.10;;
38865;SDS011;62686;48.984;8.394;2023-05-13T02:38:08;7.67;;;5.60;;
38865;SDS011;62686;48.984;8.394;2023-05-13T02:40:36;6.40;;;5.27;;
38865;SDS011;62686;48.984;8.394;2023-05-13T02:43:04;6.87;;;5.70;;
38865;SDS011;62686;48.984;8.394;2023-05-13T02:45:32;5.90;;;5.30;;
38865;SDS011;62686;48.984;8.394;2023-05-13T02:48:02;6.47;;;5.60;;
38865;SDS011;62686;48.984;8.394;2023-05-13T02:50:30;7.30;;;5.57;;
38865;SDS011;62686;48.984;8.394;2023-05-13T02:52:58;6.57;;;5.10;;
38865;SDS011;62686;48.984;8.394;2023-05-13T02:55:26;7.90;;;5.33;;
38865;SDS011;62686;48.984;8.394;2023-05-13T02:57:55;5.20;;;4.70;;
38865;SDS011;62686;48.984;8.394;2023-05-13T03:00:23;6.10;;;4.63;;
38865;SDS011;62686;48.984;8.394;2023-05-13T03:02:51;7.33;;;5.07;;
38865;SDS011;62686;48.984;8.394;2023-05-13T03:05:21;8.60;;;4.93;;
38865;SDS011;62686;48.984;8.394;2023-05-13T03:07:49;6.07;;;5.10;;
38865;SDS011;62686;48.984;8.394;2023-05-13T03:10:17;5.40;;;4.90;;
38865;SDS011;62686;48.984;8.394;2023-05-13T03:12:45;5.83;;;5.23;;
38865;SDS011;62686;48.984;8.394;2023-05-13T03:15:14;5.53;;;5.03;;
38865;SDS011;62686;48.984;8.394;2023-05-13T03:17:42;5.97;;;5.37;;
38865;SDS011;62686;48.984;8.394;2023-05-13T03:20:11;6.77;;;6.00;;
38865;SDS011;62686;48.984;8.394;2023-05-13T03:22:41;6.43;;;5.70;;
38865;SDS011;62686;48.984;8.394;2023-05-13T03:25:09;6.87;;;6.07;;
38865;SDS011;62686;48.984;8.394;2023-05-13T03:27:37;9.03;;;6.13;;
38865;SDS011;62686;48.984;8.394;2023-05-13T03:30:06;8.60;;;5.83;;
38865;SDS011;62686;48.984;8.394;2023-05-13T03:32:35;6.40;;;5.70;;
38865;SDS011;62686;48.984;8.394;2023-05-13T03:35:03;7.10;;;5.87;;
38865;SDS011;62686;48.984;8.394;2023-05-13T03:37:31;8.67;;;6.23;;
38865;SDS011;62686;48.984;8.394;2023-05-13T03:40:01;8.50;;;6.33;;
38865;SDS011;62686;48.984;8.394;2023-05-13T03:42:29;8.73;;;6.27;;
38865;SDS011;62686;48.984;8.394;2023-05-13T03:44:58;7.40;;;6.50;;
38865;SDS011;62686;48.984;8.394;2023-05-13T03:47:26;7.13;;;6.13;;
38865;SDS011;62686;48.984;8.394;2023-05-13T03:49:54;8.00;;;6.43;;
38865;SDS011;62686;48.984;8.394;2023-05-13T03:52:22;8.97;;;6.63;;
38865;SDS011;62686;48.984;8.394;2023-05-13T03:54:51;8.10;;;7.10;;
38865;SDS011;62686;48.984;8.394;2023-05-13T03:57:20;14.37;;;6.90;;
38865;SDS011;62686;48.984;8.394;2023-05-13T03:59:48;9.53;;;6.90;;
38865;SDS011;62686;48.984;8.394;2023-05-13T04:02:17;7.80;;;7.00;;
38865;SDS011;62686;48.984;8.394;2023-05-13T04:04:47;7.83;;;6.77;;
38865;SDS011;62686;48.984;8.394;2023-05-13T04:07:15;9.40;;;7.03;;
38865;SDS011;62686;48.984;8.394;2023-05-13T04:09:43;9.90;;;7.47;;
38865;SDS011;62686;48.984;8.394;2023-05-13T04:12:11;9.00;;;7.90;;
38865;SDS011;62686;48.984;8.394;2023-05-13T04:14:41;13.13;;;8.00;;
38865;SDS011;62686;48.984;8.394;2023-05-13T04:17:09;12.63;;;7.77;;
38865;SDS011;62686;48.984;8.394;2023-05-13T04:19:37;9.40;;;8.03;;
38865;SDS011;62686;48.984;8.394;2023-05-13T04:22:05;9.13;;;8.13;;
38865;SDS011;62686;48.984;8.394;2023-05-13T04:24:33;8.60;;;7.80;;
38865;SDS011;62686;48.984;8.394;2023-05-13T04:27:02;8.13;;;6.97;;
38865;SDS011;62686;48.984;8.394;2023-05-13T04:29:30;8.03;;;5.43;;
38865;SDS011;62686;48.984;8.394;2023-05-13T04:32:00;6.90;;;4.60;;
38865;SDS011;62686;48.984;8.394;2023-05-13T04:34:28;5.40;;;3.47;;
38865;SDS011;62686;48.984;8.394;2023-05-13T04:36:56;3.58;;;3.10;;
38865;SDS011;62686;48.984;8.394;2023-05-13T04:39:25;3.80;;;2.70;;
38865;SDS011;62686;48.984;8.394;2023-05-13T04:41:53;2.55;;;2.22;;
38865;SDS011;62686;48.984;8.394;2023-05-13T04:44:21;3.15;;;2.40;;
38865;SDS011;62686;48.984;8.394;2023-05-13T04:46:50;6.22;;;2.28;;
38865;SDS011;62686;48.984;8.394;2023-05-13T04:49:19;2.42;;;2.10;;
38865;SDS011;62686;48.984;8.394;2023-05-13T04:51:48;2.22;;;2.00;;
38865;SDS011;62686;48.984;8.394;2023-05-13T04:54:16;3.63;;;1.88;;
38865;SDS011;62686;48.984;8.394;2023-05-13T04:56:44;4.25;;;2.00;;
38865;SDS011;62686;48.984;8.394;2023-05-13T04:59:13;2.65;;;2.10;;
38865;SDS011;62686;48.984;8.394;2023-05-13T05:01:41;2.55;;;1.90;;
38865;SDS011;62686;48.984;8.394;2023-05-13T05:04:10;2.10;;;1.90;;
38865;SDS011;62686;48.984;8.394;2023-05-13T05:06:40;3.28;;;2.05;;
38865;SDS011;62686;48.984;8.394;2023-05-13T05:09:09;3.35;;;2.00;;
38865;SDS011;62686;48.984;8.394;2023-05-13T05:11:39;2.35;;;2.15;;
38865;SDS011;62686;48.984;8.394;2023-05-13T05:14:07;4.57;;;1.95;;
38865;SDS011;62686;48.984;8.394;2023-05-13T05:16:36;4.47;;;1.88;;
38865;SDS011;62686;48.984;8.394;2023-05-13T05:19:04;1.70;;;1.60;;
38865;SDS011;62686;48.984;8.394;2023-05-13T05:21:32;1.60;;;1.50;;
38865;SDS011;62686;48.984;8.394;2023-05-13T05:24:02;2.80;;;1.67;;
38865;SDS011;62686;48.984;8.394;2023-05-13T05:26:30;5.13;;;1.80;;
38865;SDS011;62686;48.984;8.394;2023-05-13T05:28:59;2.97;;;1.80;;
38865;SDS011;62686;48.984;8.394;2023-05-13T05:31:27;3.53;;;1.70;;
38865;SDS011;62686;48.984;8.394;2023-05-13T05:33:56;2.92;;;1.73;;
38865;SDS011;62686;48.984;8.394;2023-05-13T05:36:27;4.43;;;2.00;;
38865;SDS011;62686;48.984;8.394;2023-05-13T05:38:55;1.70;;;1.60;;
38865;SDS011;62686;48.984;8.394;2023-05-13T05:41:24;3.22;;;1.65;;
38865;SDS011;62686;48.984;8.394;2023-05-13T05:43:53;1.98;;;1.77;;
38865;SDS011;62686;48.984;8.394;2023-05-13T05:46:21;2.00;;;1.63;;
38865;SDS011;62686;48.984;8.394;2023-05-13T05:48:49;2.05;;;1.77;;
38865;SDS011;62686;48.984;8.394;2023-05-13T05:51:17;4.93;;;1.60;;
38865;SDS011;62686;48.984;8.394;2023-05-13T05:53:46;2.83;;;1.80;;
38865;SDS011;62686;48.984;8.394;2023-05-13T05:56:14;3.55;;;1.75;;
38865;SDS011;62686;48.984;8.394;2023-05-13T05:58:43;3.03;;;2.13;;
38865;SDS011;62686;48.984;8.394;2023-05-13T06:01:12;3.30;;;1.88;;
38865;SDS011;62686;48.984;8.394;2023-05-13T06:03:40;3.67;;;1.90;;
38865;SDS011;62686;48.984;8.394;2023-05-13T06:06:08;11.93;;;10.80;;
38865;SDS011;62686;48.984;8.394;2023-05-13T06:08:36;3.80;;;2.35;;
38865;SDS011;62686;48.984;8.394;2023-05-13T06:11:05;5.20;;;4.72;;
38865;SDS011;62686;48.984;8.394;2023-05-13T06:13:33;2.92;;;1.85;;
38865;SDS011;62686;48.984;8.394;2023-05-13T06:16:03;3.13;;;2.83;;
38865;SDS011;62686;48.984;8.394;2023-05-13T06:18:32;2.67;;;1.63;;
38865;SDS011;62686;48.984;8.394;2023-05-13T06:21:00;4.78;;;2.00;;
38865;SDS011;62686;48.984;8.394;2023-05-13T06:23:28;3.10;;;1.60;;
38865;SDS011;62686;48.984;8.394;2023-05-13T06:25:57;1.45;;;1.35;;
38865;SDS011;62686;48.984;8.394;2023-05-13T06:28:25;2.20;;;1.80;;
38865;SDS011;62686;48.984;8.394;2023-05-13T06:30:54;4.00;;;1.77;;
38865;SDS011;62686;48.984;8.394;2023-05-13T06:33:24;2.47;;;1.80;;
38865;SDS011;62686;48.984;8.394;2023-05-13T06:35:52;4.10;;;1.55;;
38865;SDS011;62686;48.984;8.394;2023-05-13T06:38:20;5.60;;;1.60;;
38865;SDS011;62686;48.984;8.394;2023-05-13T06:40:48;2.30;;;1.77;;
38865;SDS011;62686;48.984;8.394;2023-05-13T06:43:17;1.90;;;1.70;;
38865;SDS011;62686;48.984;8.394;2023-05-13T06:45:45;2.80;;;1.83;;
38865;SDS011;62686;48.984;8.394;2023-05-13T06:48:14;3.90;;;1.80;;
38865;SDS011;62686;48.984;8.394;2023-05-13T06:50:44;5.10;;;2.08;;
38865;SDS011;62686;48.984;8.394;2023-05-13T06:53:13;2.67;;;1.70;;
38865;SDS011;62686;48.984;8.394;2023-05-13T06:55:41;1.88;;;1.60;;
38865;SDS011;62686;48.984;8.394;2023-05-13T06:58:09;5.10;;;1.75;;
38865;SDS011;62686;48.984;8.394;2023-05-13T07:00:38;3.90;;;1.80;;
38865;SDS011;62686;48.984;8.394;2023-05-13T07:03:07;2.45;;;1.80;;
38865;SDS011;62686;48.984;8.394;2023-05-13T07:05:35;2.38;;;1.65;;
38865;SDS011;62686;48.984;8.394;2023-05-13T07:08:05;2.60;;;1.88;;
38865;SDS011;62686;48.984;8.394;2023-05-13T07:10:34;4.05;;;1.80;;
38865;SDS011;62686;48.984;8.394;2023-05-13T07:13:02;3.33;;;1.90;;
38865;SDS011;62686;48.984;8.394;2023-05-13T07:15:31;4.57;;;2.00;;
38865;SDS011;62686;48.984;8.394;2023-05-13T07:17:59;2.45;;;1.85;;
38865;SDS011;62686;48.984;8.394;2023-05-13T07:20:27;2.08;;;1.88;;
38865;SDS011;62686;48.984;8.394;2023-05-13T07:22:56;4.68;;;1.80;;
38865;SDS011;62686;48.984;8.394;2023-05-13T07:25:26;2.80;;;2.10;;
38865;SDS011;62686;48.984;8.394;2023-05-13T07:27:54;1.85;;;1.73;;
38865;SDS011;62686;48.984;8.394;2023-05-13T07:30:23;3.42;;;1.90;;
38865;SDS011;62686;48.984;8.394;2023-05-13T07:32:51;3.80;;;2.20;;
38865;SDS011;62686;48.984;8.394;2023-05-13T07:35:19;2.10;;;1.75;;
38865;SDS011;62686;48.984;8.394;2023-05-13T07:37:48;2.13;;;1.90;;
38865;SDS011;62686;48.984;8.394;2023-05-13T07:40:16;4.82;;;2.08;;
38865;SDS011;62686;48.984;8.394;2023-05-13T07:42:47;2.63;;;2.03;;
38865;SDS011;62686;48.984;8.394;2023-05-13T07:45:15;2.78;;;2.10;;
38865;SDS011;62686;48.984;8.394;2023-05-13T07:47:43;2.55;;;2.15;;
38865;SDS011;62686;48.984;8.394;2023-05-13T07:50:12;3.10;;;1.98;;
38865;SDS011;62686;48.984;8.394;2023-05-13T07:52:40;3.80;;;2.20;;
38865;SDS011;62686;48.984;8.394;2023-05-13T07:55:08;4.88;;;2.00;;
38865;SDS011;62686;48.984;8.394;2023-05-13T07:57:37;2.53;;;1.85;;
38865;SDS011;62686;48.984;8.394;2023-05-13T08:00:07;3.47;;;1.77;;
38865;SDS011;62686;48.984;8.394;2023-05-13T08:02:36;2.83;;;2.22;;
38865;SDS011;62686;48.984;8.394;2023-05-13T08:05:05;2.60;;;1.90;;
38865;SDS011;62686;48.984;8.394;2023-05-13T08:07:34;2.72;;;1.90;;
38865;SDS011;62686;48.984;8.394;2023-05-13T08:10:02;2.85;;;1.90;;
38865;SDS011;62686;48.984;8.394;2023-05-13T08:12:31;2.75;;;2.25;;
38865;SDS011;62686;48.984;8.394;2023-05-13T08:15:00;5.18;;;2.03;;
38865;SDS011;62686;48.984;8.394;2023-05-13T08:17:31;3.13;;;2.22;;
38865;SDS011;62686;48.984;8.394;2023-05-13T08:19:59;3.70;;;2.00;;
38865;SDS011;62686;48.984;8.394;2023-05-13T08:22:28;2.20;;;2.00;;
38865;SDS011;62686;48.984;8.394;2023-05-13T08:24:57;3.53;;;2.10;;
38865;SDS011;62686;48.984;8.394;2023-05-13T08:27:26;7.10;;;2.50;;
38865;SDS011;62686;48.984;8.394;2023-05-13T08:29:54;2.30;;;1.90;;
38865;SDS011;62686;48.984;8.394;2023-05-13T08:32:27;2.63;;;1.80;;
38865;SDS011;62686;48.984;8.394;2023-05-13T08:34:57;4.28;;;1.80;;
38865;SDS011;62686;48.984;8.394;2023-05-13T08:37:26;3.88;;;1.90;;
38865;SDS011;62686;48.984;8.394;2023-05-13T08:39:54;5.10;;;2.10;;
38865;SDS011;62686;48.984;8.394;2023-05-13T08:42:25;2.80;;;2.00;;
38865;SDS011;62686;48.984;8.394;2023-05-13T08:44:59;4.97;;;2.20;;
38865;SDS011;62686;48.984;8.394;2023-05-13T08:47:31;5.05;;;1.80;;
38865;SDS011;62686;48.984;8.394;2023-05-13T08:50:10;2.22;;;2.03;;
38865;SDS011;62686;48.984;8.394;2023-05-13T08:52:39;6.43;;;2.50;;
38865;SDS011;62686;48.984;8.394;2023-05-13T08:55:08;3.67;;;2.20;;
38865;SDS011;62686;48.984;8.394;2023-05-13T08:57:37;4.50;;;2.08;;
38865;SDS011;62686;48.984;8.394;2023-05-13T09:00:06;4.22;;;2.15;;
38865;SDS011;62686;48.984;8.394;2023-05-13T09:02:35;3.58;;;2.08;;
38865;SDS011;62686;48.984;8.394;2023-05-13T09:05:03;2.05;;;1.77;;
38865;SDS011;62686;48.984;8.394;2023-05-13T09:07:35;4.07;;;2.00;;
38865;SDS011;62686;48.984;8.394;2023-05-13T09:10:04;2.13;;;1.92;;
38865;SDS011;62686;48.984;8.394;2023-05-13T09:12:40;3.47;;;1.73;;
38865;SDS011;62686;48.984;8.394;2023-05-13T09:15:10;2.40;;;1.70;;
38865;SDS011;62686;48.984;8.394;2023-05-13T09:17:40;2.47;;;1.80;;
38865;SDS011;62686;48.984;8.394;2023-05-13T09:20:09;3.67;;;1.80;;
38865;SDS011;62686;48.984;8.394;2023-05-13T09:22:42;2.75;;;1.77;;
38865;SDS011;62686;48.984;8.394;2023-05-13T09:25:12;1.95;;;1.75;;
38865;SDS011;62686;48.984;8.394;2023-05-13T09:27:43;2.25;;;1.65;;
38865;SDS011;62686;48.984;8.394;2023-05-13T09:30:13;3.05;;;1.63;;
38865;SDS011;62686;48.984;8.394;2023-05-13T09:32:41;2.35;;;1.92;;
38865;SDS011;62686;48.984;8.394;2023-05-13T09:35:10;2.60;;;1.90;;
38865;SDS011;62686;48.984;8.394;2023-05-13T09:37:46;4.50;;;1.98;;
38865;SDS011;62686;48.984;8.394;2023-05-13T09:40:17;2.90;;;2.00;;
38865;SDS011;62686;48.984;8.394;2023-05-13T09:42:45;1.90;;;1.70;;
38865;SDS011;62686;48.984;8.394;2023-05-13T09:45:14;3.20;;;1.73;;
38865;SDS011;62686;48.984;8.394;2023-05-13T09:47:43;2.75;;;1.60;;
38865;SDS011;62686;48.984;8.394;2023-05-13T09:50:18;4.35;;;1.60;;
38865;SDS011;62686;48.984;8.394;2023-05-13T09:52:51;2.05;;;1.80;;
38865;SDS011;62686;48.984;8.394;2023-05-13T09:55:19;1.92;;;1.75;;
38865;SDS011;62686;48.984;8.394;2023-05-13T09:57:49;2.78;;;1.83;;
38865;SDS011;62686;48.984;8.394;2023-05-13T10:00:20;2.17;;;1.83;;
38865;SDS011;62686;48.984;8.394;2023-05-13T10:02:54;4.60;;;1.73;;
38865;SDS011;62686;48.984;8.394;2023-05-13T10:05:23;2.40;;;1.77;;
38865;SDS011;62686;48.984;8.394;2023-05-13T10:07:54;2.47;;;1.80;;
38865;SDS011;62686;48.984;8.394;2023-05-13T10:10:23;1.67;;;1.50;;
38865;SDS011;62686;48.984;8.394;2023-05-13T10:12:52;3.30;;;1.70;;
38865;SDS011;62686;48.984;8.394;2023-05-13T10:15:20;6.55;;;1.88;;
38865;SDS011;62686;48.984;8.394;2023-05-13T10:17:49;1.77;;;1.67;;
38865;SDS011;62686;48.984;8.394;2023-05-13T10:20:19;1.85;;;1.65;;
38865;SDS011;62686;48.984;8.394;2023-05-13T10:22:49;3.20;;;1.30;;
38865;SDS011;62686;48.984;8.394;2023-05-13T10:25:19;7.05;;;1.70;;
38865;SDS011;62686;48.984;8.394;2023-05-13T10:27:48;2.88;;;1.50;;
38865;SDS011;62686;48.984;8.394;2023-05-13T10:30:19;3.15;;;1.40;;
38865;SDS011;62686;48.984;8.394;2023-05-13T10:32:51;2.03;;;1.60;;
38865;SDS011;62686;48.984;8.394;2023-05-13T10:35:21;1.85;;;1.40;;
38865;SDS011;62686;48.984;8.394;2023-05-13T10:38:02;1.77;;;1.30;;
38865;SDS011;62686;48.984;8.394;2023-05-13T10:46:03;4.28;;;1.40;;
38865;SDS011;62686;48.984;8.394;2023-05-13T10:48:41;1.98;;;1.50;;
38865;SDS011;62686;48.984;8.394;2023-05-13T10:51:17;1.48;;;1.30;;
38865;SDS011;62686;48.984;8.394;2023-05-13T10:53:53;2.22;;;1.25;;
38865;SDS011;62686;48.984;8.394;2023-05-13T10:56:23;1.63;;;1.50;;
38865;SDS011;62686;48.984;8.394;2023-05-13T10:59:01;1.55;;;1.45;;
38865;SDS011;62686;48.984;8.394;2023-05-13T11:01:35;2.08;;;1.52;;
38865;SDS011;62686;48.984;8.394;2023-05-13T11:06:47;1.95;;;1.48;;
38865;SDS011;62686;48.984;8.394;2023-05-13T11:09:27;2.03;;;1.23;;
38865;SDS011;62686;48.984;8.394;2023-05-13T11:12:00;1.73;;;1.35;;
38865;SDS011;62686;48.984;8.394;2023-05-13T11:14:31;2.50;;;1.20;;
38865;SDS011;62686;48.984;8.394;2023-05-13T11:17:09;4.63;;;1.30;;
38865;SDS011;62686;48.984;8.394;2023-05-13T11:19:43;2.70;;;1.40;;
38865;SDS011;62686;48.984;8.394;2023-05-13T11:22:31;2.20;;;1.45;;
38865;SDS011;62686;48.984;8.394;2023-05-13T11:25:03;1.50;;;1.40;;
38865;SDS011;62686;48.984;8.394;2023-05-13T11:27:37;1.50;;;1.40;;
38865;SDS011;62686;48.984;8.394;2023-05-13T11:30:19;1.83;;;1.48;;
38865;SDS011;62686;48.984;8.394;2023-05-13T11:32:53;1.27;;;1.17;;
38865;SDS011;62686;48.984;8.394;2023-05-13T11:38:08;3.08;;;1.60;;
38865;SDS011;62686;48.984;8.394;2023-05-13T11:40:48;1.75;;;1.40;;
38865;SDS011;62686;48.984;8.394;2023-05-13T11:43:18;3.25;;;1.40;;
38865;SDS011;62686;48.984;8.394;2023-05-13T11:45:48;1.83;;;1.40;;
38865;SDS011;62686;48.984;8.394;2023-05-13T11:48:19;1.67;;;1.50;;
38865;SDS011;62686;48.984;8.394;2023-05-13T11:50:48;2.00;;;1.42;;
38865;SDS011;62686;48.984;8.394;2023-05-13T11:53:20;1.92;;;1.30;;
38865;SDS011;62686;48.984;8.394;2023-05-13T11:55:49;2.97;;;1.55;;
38865;SDS011;62686;48.984;8.394;2023-05-13T11:58:19;3.22;;;1.20;;
38865;SDS011;62686;48.984;8.394;2023-05-13T12:00:48;1.25;;;1.05;;
38865;SDS011;62686;48.984;8.394;2023-05-13T12:03:19;2.15;;;1.55;;
38865;SDS011;62686;48.984;8.394;2023-05-13T12:05:49;1.90;;;1.42;;
38865;SDS011;62686;48.984;8.394;2023-05-13T12:10:52;1.23;;;1.13;;
38865;SDS011;62686;48.984;8.394;2023-05-13T12:13:20;2.55;;;1.63;;
38865;SDS011;62686;48.984;8.394;2023-05-13T12:15:51;2.22;;;1.45;;
38865;SDS011;62686;48.984;8.394;2023-05-13T12:18:22;1.90;;;1.30;;
38865;SDS011;62686;48.984;8.394;2023-05-13T12:20:51;2.63;;;1.65;;
38865;SDS011;62686;48.984;8.394;2023-05-13T12:23:19;1.85;;;1.60;;
38865;SDS011;62686;48.984;8.394;2023-05-13T12:25:48;1.50;;;1.40;;
38865;SDS011;62686;48.984;8.394;2023-05-13T12:28:17;2.10;;;1.30;;
38865;SDS011;62686;48.984;8.394;2023-05-13T12:30:50;1.85;;;1.40;;
38865;SDS011;62686;48.984;8.394;2023-05-13T12:33:19;1.38;;;1.27;;
38865;SDS011;62686;48.984;8.394;2023-05-13T12:35:50;3.58;;;1.60;;
38865;SDS011;62686;48.984;8.394;2023-05-13T12:38:20;3.22;;;1.50;;
38865;SDS011;62686;48.984;8.394;2023-05-13T12:40:51;1.80;;;1.33;;
38865;SDS011;62686;48.984;8.394;2023-05-13T12:43:20;2.17;;;1.50;;
38865;SDS011;62686;48.984;8.394;2023-05-13T12:45:51;1.95;;;1.50;;
38865;SDS011;62686;48.984;8.394;2023-05-13T12:48:21;5.57;;;1.65;;
38865;SDS011;62686;48.984;8.394;2023-05-13T12:50:52;1.30;;;1.20;;
38865;SDS011;62686;48.984;8.394;2023-05-13T12:53:21;2.95;;;1.40;;
38865;SDS011;62686;48.984;8.394;2023-05-13T12:55:49;1.85;;;1.50;;
38865;SDS011;62686;48.984;8.394;2023-05-13T12:58:18;1.65;;;1.40;;
38865;SDS011;62686;48.984;8.394;2023-05-13T13:00:46;3.47;;;1.70;;
38865;SDS011;62686;48.984;8.394;2023-05-13T13:03:14;2.95;;;1.35;;
38865;SDS011;62686;48.984;8.394;2023-05-13T13:05:42;4.97;;;1.33;;
38865;SDS011;62686;48.984;8.394;2023-05-13T13:08:12;1.77;;;1.50;;
38865;SDS011;62686;48.984;8.394;2023-05-13T13:10:40;2.97;;;1.60;;
38865;SDS011;62686;48.984;8.394;2023-05-13T13:13:08;2.05;;;1.60;;
38865;SDS011;62686;48.984;8.394;2023-05-13T13:15:36;3.17;;;1.52;;
38865;SDS011;62686;48.984;8.394;2023-05-13T13:18:05;2.75;;;1.42;;
38865;SDS011;62686;48.984;8.394;2023-05-13T13:20:33;3.83;;;1.40;;
38865;SDS011;62686;48.984;8.394;2023-05-13T13:23:02;5.22;;;1.45;;
38865;SDS011;62686;48.984;8.394;2023-05-13T13:25:32;5.22;;;1.90;;
38865;SDS011;62686;48.984;8.394;2023-05-13T13:28:00;3.03;;;1.52;;
38865;SDS011;62686;48.984;8.394;2023-05-13T13:30:29;3.92;;;2.00;;
38865;SDS011;62686;48.984;8.394;2023-05-13T13:32:58;2.00;;;1.60;;
38865;SDS011;62686;48.984;8.394;2023-05-13T13:35:26;1.90;;;1.70;;
38865;SDS011;62686;48.984;8.394;2023-05-13T13:37:54;1.83;;;1.50;;
38865;SDS011;62686;48.984;8.394;2023-05-13T13:40:22;2.15;;;1.67;;
38865;SDS011;62686;48.984;8.394;2023-05-13T13:42:52;2.97;;;1.65;;
38865;SDS011;62686;48.984;8.394;2023-05-13T13:45:20;1.42;;;1.33;;
38865;SDS011;62686;48.984;8.394;2023-05-13T13:47:49;2.10;;;1.48;;
38865;SDS011;62686;48.984;8.394;2023-05-13T13:50:17;3.65;;;1.70;;
38865;SDS011;62686;48.984;8.394;2023-05-13T13:52:46;1.48;;;1.38;;
38865;SDS011;62686;48.984;8.394;2023-05-13T13:55:17;3.35;;;1.52;;
38865;SDS011;62686;48.984;8.394;2023-05-13T13:57:46;1.70;;;1.60;;
38865;SDS011;62686;48.984;8.394;2023-05-13T14:00:16;2.03;;;1.40;;
38865;SDS011;62686;48.984;8.394;2023-05-13T14:02:44;1.70;;;1.33;;
38865;SDS011;62686;48.984;8.394;2023-05-13T14:05:13;1.65;;;1.40;;
38865;SDS011;62686;48.984;8.394;2023-05-13T14:07:42;1.25;;;1.15;;
38865;SDS011;62686;48.984;8.394;2023-05-13T14:10:11;1.92;;;1.38;;
38865;SDS011;62686;48.984;8.394;2023-05-13T14:28:00;1.70;;;1.42;;
38865;SDS011;62686;48.984;8.394;2023-05-13T14:30:29;1.50;;;1.40;;
38865;SDS011;62686;48.984;8.394;2023-05-13T14:32:57;3.63;;;1.40;;
38865;SDS011;62686;48.984;8.394;2023-05-13T14:35:26;2.40;;;1.40;;
38865;SDS011;62686;48.984;8.394;2023-05-13T14:37:54;3.70;;;1.50;;
38865;SDS011;62686;48.984;8.394;2023-05-13T14:40:22;1.63;;;1.52;;
38865;SDS011;62686;48.984;8.394;2023-05-13T14:42:51;5.78;;;2.13;;
38865;SDS011;62686;48.984;8.394;2023-05-13T14:45:20;7.50;;;3.60;;
38865;SDS011;62686;48.984;8.394;2023-05-13T14:47:49;1.95;;;1.20;;
38865;SDS011;62686;48.984;8.394;2023-05-13T14:50:18;1.42;;;1.30;;
38865;SDS011;62686;48.984;8.394;2023-05-13T14:52:47;1.75;;;1.65;;
38865;SDS011;62686;48.984;8.394;2023-05-13T14:55:15;1.88;;;1.50;;
38865;SDS011;62686;48.984;8.394;2023-05-13T14:57:43;1.95;;;1.60;;
38865;SDS011;62686;48.984;8.394;2023-05-13T15:00:12;2.08;;;1.55;;
38865;SDS011;62686;48.984;8.394;2023-05-13T15:02:42;1.77;;;1.45;;
38865;SDS011;62686;48.984;8.394;2023-05-13T15:05:11;1.77;;;1.25;;
38865;SDS011;62686;48.984;8.394;2023-05-13T15:07:42;1.90;;;1.42;;
38865;SDS011;62686;48.984;8.394;2023-05-13T15:10:10;2.63;;;1.60;;
38865;SDS011;62686;48.984;8.394;2023-05-13T15:12:39;1.40;;;1.10;;
38865;SDS011;62686;48.984;8.394;2023-05-13T15:15:08;5.35;;;1.67;;
38865;SDS011;62686;48.984;8.394;2023-05-13T15:17:37;1.50;;;1.38;;
38865;SDS011;62686;48.984;8.394;2023-05-13T15:20:07;1.27;;;1.17;;
38865;SDS011;62686;48.984;8.394;2023-05-13T15:22:36;1.40;;;1.30;;
38865;SDS011;62686;48.984;8.394;2023-05-13T15:25:05;1.88;;;1.60;;
38865;SDS011;62686;48.984;8.394;2023-05-13T15:27:33;2.03;;;1.10;;
38865;SDS011;62686;48.984;8.394;2023-05-13T15:30:01;2.00;;;1.30;;